TGL9305 LFBZ-LICC
Flight info
| Callsign | TGL9305 |
|---|---|
| Flight time | N/A |
| Altitude | 34000 |
| Route | SOVOS G17 ORTEZ DCT TBO DCT PERDU N862 POSSY M601 GRAUS/N0448F360 M601 BCN N725 ORKUM M603 ELSAG DCT ALG/N0439F350 DCT QUENN DCT RONAB DCT BEKIV/N0361F190 M871 LIBRO |
| Aircraft | A321/M-SDE3FGHIRWY/LB1 |
Departure
| Time | 2026-05-07 17:04 |
|---|---|
| Airport | Biarritz Pays Basque airport (LFBZ) |
Arrival
| Time | N/A |
|---|---|
| Airport | Catania-Fontanarossa Airport (LICC) |
| Time | Latitude | Longitude | Altitude | Speed | Heading |
|---|---|---|---|---|---|
| 2026-05-07 16:40 | 43.47124 | -1.53072 | 257 ft | 0 kts | 7° |
| 2026-05-07 16:54 | 43.47103 | -1.53076 | 256 ft | 4 kts | 7° |
| 2026-05-07 16:55 | 43.47077 | -1.53077 | 256 ft | 4 kts | 341° |
| 2026-05-07 16:55 | 43.47058 | -1.53058 | 256 ft | 4 kts | 290° |
| 2026-05-07 16:55 | 43.47055 | -1.53036 | 256 ft | 1 kts | 269° |
| 2026-05-07 16:55 | 43.47055 | -1.53032 | 256 ft | 0 kts | 269° |
| 2026-05-07 16:59 | 43.47055 | -1.53034 | 256 ft | 1 kts | 269° |
| 2026-05-07 16:59 | 43.47054 | -1.53074 | 256 ft | 8 kts | 268° |
| 2026-05-07 16:59 | 43.47045 | -1.53157 | 257 ft | 9 kts | 232° |
| 2026-05-07 16:59 | 43.46985 | -1.53205 | 257 ft | 12 kts | 186° |
| 2026-05-07 17:00 | 43.46938 | -1.53186 | 257 ft | 0 kts | 156° |
| 2026-05-07 17:01 | 43.46910 | -1.53170 | 256 ft | 8 kts | 157° |
| 2026-05-07 17:01 | 43.46844 | -1.53196 | 257 ft | 13 kts | 227° |
| 2026-05-07 17:01 | 43.46832 | -1.53323 | 258 ft | 16 kts | 269° |
| 2026-05-07 17:01 | 43.46829 | -1.53472 | 260 ft | 15 kts | 269° |
| 2026-05-07 17:02 | 43.46835 | -1.53610 | 260 ft | 14 kts | 289° |
| 2026-05-07 17:02 | 43.46841 | -1.53721 | 261 ft | 8 kts | 219° |
| 2026-05-07 17:02 | 43.46826 | -1.53710 | 261 ft | 2 kts | 105° |
| 2026-05-07 17:02 | 43.46828 | -1.53664 | 261 ft | 10 kts | 87° |
| 2026-05-07 17:03 | 43.46832 | -1.53547 | 260 ft | 12 kts | 88° |
| 2026-05-07 17:03 | 43.46833 | -1.53424 | 259 ft | 15 kts | 89° |
| 2026-05-07 17:03 | 43.46835 | -1.53024 | 256 ft | 77 kts | 89° |
| 2026-05-07 17:03 | 43.46849 | -1.51989 | 249 ft | 136 kts | 89° |
| 2026-05-07 17:04 | 43.46878 | -1.50494 | 419 ft | 166 kts | 88° |
| 2026-05-07 17:04 | 43.46895 | -1.49442 | 892 ft | 166 kts | 90° |
| 2026-05-07 17:04 | 43.46909 | -1.47875 | 1635 ft | 162 kts | 91° |
| 2026-05-07 17:04 | 43.46902 | -1.46323 | 2233 ft | 165 kts | 98° |
| 2026-05-07 17:05 | 43.46658 | -1.44696 | 2441 ft | 184 kts | 103° |
| 2026-05-07 17:05 | 43.46253 | -1.42244 | 2659 ft | 213 kts | 104° |
| 2026-05-07 17:05 | 43.45913 | -1.40156 | 2905 ft | 231 kts | 104° |
| 2026-05-07 17:05 | 43.45562 | -1.37958 | 3362 ft | 244 kts | 103° |
| 2026-05-07 17:06 | 43.45195 | -1.35623 | 3969 ft | 253 kts | 103° |
| 2026-05-07 17:06 | 43.44943 | -1.34009 | 4452 ft | 257 kts | 103° |
| 2026-05-07 17:06 | 43.44566 | -1.31582 | 5228 ft | 262 kts | 103° |
| 2026-05-07 17:06 | 43.44178 | -1.29106 | 6040 ft | 267 kts | 105° |
| 2026-05-07 17:07 | 43.43780 | -1.26583 | 6880 ft | 272 kts | 104° |
| 2026-05-07 17:07 | 43.43372 | -1.24010 | 7657 ft | 278 kts | 105° |
| 2026-05-07 17:07 | 43.42958 | -1.21391 | 8363 ft | 282 kts | 105° |
| 2026-05-07 17:07 | 43.42538 | -1.18732 | 9074 ft | 286 kts | 103° |
| 2026-05-07 17:08 | 43.42114 | -1.16037 | 9768 ft | 291 kts | 103° |
| 2026-05-07 17:08 | 43.41683 | -1.13283 | 10233 ft | 303 kts | 103° |
| 2026-05-07 17:08 | 43.41267 | -1.10375 | 10371 ft | 325 kts | 101° |
| 2026-05-07 17:08 | 43.40860 | -1.07224 | 10653 ft | 341 kts | 101° |
| 2026-05-07 17:09 | 43.40458 | -1.03971 | 11242 ft | 348 kts | 101° |
| 2026-05-07 17:09 | 43.40054 | -1.00676 | 11879 ft | 351 kts | 101° |
| 2026-05-07 17:09 | 43.39638 | -0.97345 | 12520 ft | 355 kts | 101° |
| 2026-05-07 17:09 | 43.39210 | -0.93976 | 13151 ft | 360 kts | 101° |
| 2026-05-07 17:10 | 43.38773 | -0.90572 | 13766 ft | 364 kts | 101° |
| 2026-05-07 17:10 | 43.38337 | -0.87121 | 14404 ft | 368 kts | 101° |
| 2026-05-07 17:10 | 43.37919 | -0.83631 | 15097 ft | 372 kts | 101° |
| 2026-05-07 17:10 | 43.37510 | -0.80106 | 15687 ft | 375 kts | 101° |
| 2026-05-07 17:11 | 43.37104 | -0.76543 | 16284 ft | 379 kts | 101° |
| 2026-05-07 17:11 | 43.36693 | -0.72947 | 16889 ft | 382 kts | 100° |
| 2026-05-07 17:11 | 43.36460 | -0.69287 | 17449 ft | 386 kts | 94° |
| 2026-05-07 17:11 | 43.36338 | -0.65586 | 18013 ft | 389 kts | 94° |
| 2026-05-07 17:12 | 43.36209 | -0.61855 | 18531 ft | 392 kts | 94° |
| 2026-05-07 17:12 | 43.36075 | -0.58091 | 19005 ft | 396 kts | 94° |
| 2026-05-07 17:12 | 43.35936 | -0.54305 | 19468 ft | 398 kts | 95° |
| 2026-05-07 17:12 | 43.35795 | -0.50494 | 19945 ft | 401 kts | 95° |
| 2026-05-07 17:13 | 43.35651 | -0.46653 | 20433 ft | 404 kts | 95° |
| 2026-05-07 17:13 | 43.35508 | -0.42786 | 20947 ft | 407 kts | 95° |
| 2026-05-07 17:13 | 43.35364 | -0.38885 | 21480 ft | 410 kts | 95° |
| 2026-05-07 17:13 | 43.35217 | -0.34958 | 21996 ft | 414 kts | 95° |
| 2026-05-07 17:14 | 43.35067 | -0.30992 | 22514 ft | 417 kts | 95° |
| 2026-05-07 17:14 | 43.34911 | -0.26999 | 22987 ft | 420 kts | 95° |
| 2026-05-07 17:14 | 43.34751 | -0.22978 | 23436 ft | 423 kts | 95° |
| 2026-05-07 17:14 | 43.34588 | -0.18933 | 23819 ft | 426 kts | 95° |
| 2026-05-07 17:15 | 43.34426 | -0.14858 | 24200 ft | 428 kts | 95° |
| 2026-05-07 17:15 | 43.34266 | -0.10762 | 24559 ft | 431 kts | 95° |
| 2026-05-07 17:15 | 43.34103 | -0.06645 | 24915 ft | 433 kts | 96° |
| 2026-05-07 17:15 | 43.33933 | -0.02501 | 25266 ft | 436 kts | 96° |
| 2026-05-07 17:16 | 43.33753 | 0.01655 | 25605 ft | 437 kts | 98° |
| 2026-05-07 17:16 | 43.33106 | 0.05702 | 25935 ft | 433 kts | 115° |
| 2026-05-07 17:16 | 43.31644 | 0.09270 | 26265 ft | 427 kts | 132° |
| 2026-05-07 17:16 | 43.29518 | 0.12064 | 26589 ft | 422 kts | 149° |
| 2026-05-07 17:17 | 43.26932 | 0.13894 | 26903 ft | 417 kts | 165° |
| 2026-05-07 17:17 | 43.24106 | 0.14648 | 27241 ft | 414 kts | 180° |
| 2026-05-07 17:17 | 43.21226 | 0.14691 | 27575 ft | 415 kts | 182° |
| 2026-05-07 17:17 | 43.18330 | 0.14709 | 27951 ft | 416 kts | 182° |
| 2026-05-07 17:18 | 43.15467 | 0.14729 | 28297 ft | 418 kts | 182° |
| 2026-05-07 17:18 | 43.12554 | 0.14755 | 28632 ft | 420 kts | 182° |
| 2026-05-07 17:18 | 43.09628 | 0.14782 | 28950 ft | 421 kts | 182° |
| 2026-05-07 17:18 | 43.06690 | 0.14811 | 29261 ft | 423 kts | 182° |
| 2026-05-07 17:19 | 43.03741 | 0.14840 | 29562 ft | 425 kts | 182° |
| 2026-05-07 17:19 | 43.00780 | 0.14866 | 29884 ft | 425 kts | 182° |